Briefing drone pour Nimes (LFTW)

Rechercher une autre localisation

Conditions de vol :


Nous sommes le : Dimanche 17 octobre 2021
Il est 19:18 UTC (21:18 LT)

Lever de soleil : 05:33 UTC (07:33 LT)
Coucher de soleil : 17:22 UTC (19:22 LT)

Météo

L'essentiel des conditions de vol

VIGILANCE MÉTÉO FRANCE - Gard (30)
Pas de vigilances particulieres
METAR de LFTW
LFTW 171900Z AUTO 23004KT CAVOK 15/12 Q1021 NOSIG

Date d'émission: 17/10/2021
Heure d'émission: 19:00 UTC
Vent: 230° pour 4 KT (7 km/h)
Visibilité horizontale: > 10 km
Plafond : Plafond et visibilité OK (CAVOK)
Température: 15 °C
Point de rosée: 12 °C
Humidité: 82%
Pression (QNH): 1021 hPa
Conditions: Pas de changement dans les 2 heures (NOSIG)
TAF de LFTW
LFTW 171900Z 1719/1815 CNL

Conditions prévues :

Heure d'émission : Bulletin éffectué le 17 à 19:00 UTC
Prévision : Valide du 17 a 19:00 UTC au 18 a 15:00 UTC
Nuages : à 0ft (0 m)
WEBCAM POUR NIMES

Réglementation

Voler en sécurité

CARTES AERONAUTIQUE 1/500.000
CARTES VAC (LFTW)
SUP AIP




Chargement des AIP...
NOTAM (NIMES + Terrain à proximité / FIR )




Chargement des NOTAMS...
CONTACT PREFECTURE 30


Avertissement : Les données mises à disposition sont indicatives. Oxygène Drone ne pourra être tenu responsable de dégâts causés aux biens et aux personnes.